createdAt,value
2022-08-26T00:02:23.770Z,19.74
2022-08-26T00:04:53.250Z,19.72
2022-08-26T00:07:22.890Z,19.75
2022-08-26T00:09:54.329Z,19.74
2022-08-26T00:12:36.014Z,19.75
2022-08-26T00:15:09.093Z,19.73
2022-08-26T00:17:40.271Z,19.72
2022-08-26T00:20:12.581Z,19.73
2022-08-26T00:22:43.506Z,19.73
2022-08-26T00:25:13.786Z,19.79
2022-08-26T00:27:49.037Z,19.79
2022-08-26T00:30:22.861Z,19.76
2022-08-26T00:32:54.275Z,19.76
2022-08-26T00:35:24.249Z,19.73
2022-08-26T00:37:58.012Z,19.75
2022-08-26T00:40:30.161Z,19.68
2022-08-26T00:43:02.890Z,19.70
2022-08-26T00:45:41.489Z,19.67
2022-08-26T00:48:12.653Z,19.66
2022-08-26T00:50:49.243Z,19.67
2022-08-26T00:53:26.029Z,19.67
2022-08-26T00:56:00.919Z,19.68
2022-08-26T00:58:35.161Z,19.64
2022-08-26T01:01:04.935Z,19.61
2022-08-26T01:03:36.768Z,19.61
2022-08-26T01:06:12.552Z,19.59
2022-08-26T01:08:42.697Z,19.58
2022-08-26T01:11:13.123Z,19.56
2022-08-26T01:13:45.382Z,19.53
2022-08-26T01:16:17.431Z,19.51
2022-08-26T01:18:47.918Z,19.53
2022-08-26T01:21:20.838Z,19.52
2022-08-26T01:23:57.644Z,19.55
2022-08-26T01:26:30.360Z,19.59
2022-08-26T01:29:03.085Z,19.56
2022-08-26T01:31:43.960Z,19.55
2022-08-26T01:34:18.930Z,19.49
2022-08-26T01:36:51.503Z,19.49
2022-08-26T01:39:23.988Z,19.47
2022-08-26T01:41:55.726Z,19.48
2022-08-26T01:44:27.634Z,19.45
2022-08-26T01:46:57.750Z,19.42
2022-08-26T01:49:27.853Z,19.43
2022-08-26T01:52:02.088Z,19.39
2022-08-26T01:54:35.397Z,19.38
2022-08-26T01:57:05.586Z,19.38
2022-08-26T01:59:35.137Z,19.32
2022-08-26T02:02:04.690Z,19.36
2022-08-26T02:04:37.927Z,19.34
2022-08-26T02:07:09.715Z,19.34
2022-08-26T02:09:43.293Z,19.39
2022-08-26T02:12:14.789Z,19.61
2022-08-26T02:14:46.808Z,19.70
2022-08-26T02:17:16.674Z,19.70
2022-08-26T02:19:49.841Z,19.77
2022-08-26T02:22:22.297Z,19.56
2022-08-26T02:24:59.026Z,19.53
2022-08-26T02:27:32.826Z,19.45
2022-08-26T02:30:08.778Z,19.34
2022-08-26T02:32:40.152Z,19.29
2022-08-26T02:35:12.663Z,19.23
2022-08-26T02:37:43.058Z,19.21
2022-08-26T02:40:16.822Z,19.17
2022-08-26T02:42:46.465Z,19.19
2022-08-26T02:45:17.761Z,19.15
2022-08-26T02:47:53.866Z,19.14
2022-08-26T02:50:23.368Z,19.14
2022-08-26T02:52:54.764Z,19.14
2022-08-26T02:55:26.821Z,19.12
2022-08-26T02:57:56.308Z,19.10
2022-08-26T03:00:26.019Z,19.07
2022-08-26T03:02:55.630Z,19.04
2022-08-26T03:05:25.445Z,19.01
2022-08-26T03:07:55.422Z,19.05
2022-08-26T03:10:27.477Z,19.05
2022-08-26T03:12:58.181Z,19.07
2022-08-26T03:15:27.678Z,19.02
2022-08-26T03:17:57.675Z,19.06
2022-08-26T03:20:27.151Z,19.06
2022-08-26T03:22:56.974Z,19.02
2022-08-26T03:25:29.665Z,19.00
2022-08-26T03:27:59.494Z,18.99
2022-08-26T03:30:45.430Z,18.98
2022-08-26T03:33:16.636Z,18.96
2022-08-26T03:35:50.681Z,18.96
2022-08-26T03:38:20.770Z,18.93
2022-08-26T03:40:52.944Z,18.93
2022-08-26T03:43:26.722Z,18.92
2022-08-26T03:45:56.237Z,18.89
2022-08-26T03:48:26.898Z,18.89
2022-08-26T03:50:56.454Z,18.88
2022-08-26T03:53:27.061Z,18.88
2022-08-26T03:55:59.644Z,18.86
2022-08-26T03:58:29.238Z,18.82
2022-08-26T04:00:58.741Z,18.78
2022-08-26T04:03:41.394Z,18.80
2022-08-26T04:06:10.963Z,18.82
2022-08-26T04:08:40.867Z,18.78
2022-08-26T04:11:19.449Z,18.75
2022-08-26T04:13:49.747Z,18.75
2022-08-26T04:16:20.373Z,18.75
2022-08-26T04:18:50.177Z,18.76
2022-08-26T04:21:19.809Z,18.76
2022-08-26T04:23:50.159Z,18.71
2022-08-26T04:26:23.605Z,18.71
2022-08-26T04:28:55.515Z,18.72
2022-08-26T04:31:26.380Z,18.66
2022-08-26T04:34:00.381Z,18.69
2022-08-26T04:36:29.892Z,18.67
2022-08-26T04:38:59.467Z,18.64
2022-08-26T04:41:32.071Z,18.59
2022-08-26T04:44:02.410Z,18.61
2022-08-26T04:46:32.456Z,18.66
2022-08-26T04:49:02.282Z,18.67
2022-08-26T04:51:33.325Z,18.70
2022-08-26T04:54:02.841Z,18.73
2022-08-26T04:56:39.742Z,18.76
2022-08-26T04:59:16.814Z,18.75
2022-08-26T05:01:48.582Z,18.76
2022-08-26T05:04:19.233Z,18.80
2022-08-26T05:06:49.250Z,18.84
2022-08-26T05:09:21.181Z,18.84
2022-08-26T05:11:53.310Z,18.83
2022-08-26T05:14:23.321Z,18.86
2022-08-26T05:16:54.051Z,18.93
2022-08-26T05:19:23.708Z,18.96
2022-08-26T05:21:53.757Z,18.99
2022-08-26T05:24:23.444Z,19.01
2022-08-26T05:26:56.445Z,19.03
2022-08-26T05:29:26.877Z,19.07
2022-08-26T05:31:56.383Z,19.09
2022-08-26T05:34:30.187Z,19.13
2022-08-26T05:37:00.249Z,19.19
2022-08-26T05:39:29.837Z,19.21
2022-08-26T05:42:04.109Z,19.28
2022-08-26T05:44:55.808Z,19.25
2022-08-26T05:47:23.040Z,19.30
2022-08-26T05:49:52.929Z,19.32
2022-08-26T05:52:25.925Z,19.37
2022-08-26T05:54:55.610Z,19.39
2022-08-26T05:57:27.663Z,19.45
2022-08-26T05:59:58.086Z,19.59
2022-08-26T06:02:27.705Z,19.70
2022-08-26T06:04:57.214Z,19.87
2022-08-26T06:07:46.848Z,19.90
2022-08-26T06:10:33.131Z,19.93
2022-08-26T06:13:11.891Z,20.06
2022-08-26T06:15:45.736Z,19.98
2022-08-26T06:18:16.762Z,20.08
2022-08-26T06:20:54.614Z,20.13
2022-08-26T06:23:39.486Z,20.15
2022-08-26T06:26:10.940Z,20.06
2022-08-26T06:28:43.753Z,20.03
2022-08-26T06:31:15.821Z,20.06
2022-08-26T06:33:45.942Z,20.10
2022-08-26T06:36:19.422Z,20.10
2022-08-26T06:38:49.768Z,20.09
2022-08-26T06:41:20.171Z,20.08
2022-08-26T06:43:52.881Z,20.19
2022-08-26T06:46:24.795Z,20.29
2022-08-26T06:48:56.061Z,20.38
2022-08-26T06:51:27.825Z,20.47
2022-08-26T06:53:59.572Z,20.60
2022-08-26T06:56:31.219Z,20.71
2022-08-26T06:59:03.304Z,20.83
2022-08-26T07:01:35.036Z,20.82
2022-08-26T07:04:10.481Z,20.99
2022-08-26T07:06:43.092Z,21.10
2022-08-26T07:09:13.237Z,21.21
2022-08-26T07:11:44.594Z,21.37
2022-08-26T07:14:21.231Z,21.55
2022-08-26T07:16:51.825Z,21.66
2022-08-26T07:19:28.529Z,21.83
2022-08-26T07:22:01.809Z,21.94
2022-08-26T07:24:32.267Z,22.05
2022-08-26T07:27:03.501Z,22.15
2022-08-26T07:29:38.434Z,22.24
2022-08-26T07:32:09.754Z,22.29
2022-08-26T07:34:40.329Z,22.29
2022-08-26T07:37:11.706Z,22.30
2022-08-26T07:39:41.692Z,22.36
2022-08-26T07:42:15.726Z,22.47
2022-08-26T07:44:50.558Z,22.50
2022-08-26T07:47:25.462Z,22.70
2022-08-26T07:49:57.415Z,22.75
2022-08-26T07:52:28.549Z,22.91
2022-08-26T07:54:58.788Z,23.13
2022-08-26T07:57:28.477Z,23.19
2022-08-26T08:00:01.559Z,23.30
2022-08-26T08:02:33.012Z,23.40
2022-08-26T08:05:04.383Z,23.20
2022-08-26T08:07:44.471Z,23.36
2022-08-26T08:10:16.186Z,23.58
2022-08-26T08:12:46.126Z,23.77
2022-08-26T08:15:18.608Z,23.85
2022-08-26T08:17:51.707Z,23.71
2022-08-26T08:20:22.312Z,23.53
2022-08-26T08:22:53.398Z,23.48
2022-08-26T08:25:24.234Z,23.52
2022-08-26T08:27:53.923Z,23.59
2022-08-26T08:30:27.666Z,23.84
2022-08-26T08:32:57.683Z,23.96
2022-08-26T08:35:27.476Z,23.89
2022-08-26T08:37:57.222Z,23.77
2022-08-26T08:40:29.195Z,23.80
2022-08-26T08:43:04.086Z,23.94
2022-08-26T08:45:42.013Z,24.01
2022-08-26T08:48:16.614Z,24.12
2022-08-26T08:50:47.894Z,23.98
2022-08-26T08:53:20.582Z,23.94
2022-08-26T08:55:57.144Z,23.94
2022-08-26T08:58:30.505Z,23.91
2022-08-26T09:01:05.755Z,23.80
2022-08-26T09:03:45.593Z,23.91
2022-08-26T09:06:20.621Z,24.03
2022-08-26T09:08:51.761Z,23.93
2022-08-26T09:11:22.394Z,23.92
2022-08-26T09:13:54.602Z,23.85
2022-08-26T09:16:31.284Z,23.91
2022-08-26T09:19:08.425Z,23.84
2022-08-26T09:21:37.991Z,23.82
2022-08-26T09:24:11.346Z,23.86
2022-08-26T09:26:49.308Z,23.84
2022-08-26T09:29:24.770Z,23.63
2022-08-26T09:32:20.201Z,23.57
2022-08-26T09:34:59.462Z,23.55
2022-08-26T09:37:38.188Z,23.44
2022-08-26T09:40:27.115Z,23.45
2022-08-26T09:43:22.245Z,23.50
2022-08-26T09:45:59.095Z,23.50
2022-08-26T09:48:36.411Z,23.49
2022-08-26T09:51:08.262Z,23.48
2022-08-26T09:53:39.957Z,23.49
2022-08-26T09:56:19.049Z,23.43
2022-08-26T09:58:50.458Z,23.43
2022-08-26T10:01:38.237Z,23.48
2022-08-26T10:04:14.042Z,23.50
2022-08-26T10:06:46.228Z,23.48
2022-08-26T10:09:20.539Z,23.52
2022-08-26T10:11:54.065Z,23.57
2022-08-26T10:14:26.298Z,23.62
2022-08-26T10:17:00.212Z,23.68
2022-08-26T10:19:41.788Z,23.74
2022-08-26T10:22:28.877Z,23.87
2022-08-26T10:25:00.825Z,23.96
2022-08-26T10:27:37.522Z,24.06
2022-08-26T10:30:13.944Z,24.11
2022-08-26T10:32:48.160Z,24.20
2022-08-26T10:35:22.073Z,24.29
2022-08-26T10:37:54.166Z,24.40
2022-08-26T10:40:27.483Z,24.44
2022-08-26T10:43:00.169Z,24.46
2022-08-26T10:45:31.513Z,24.56
2022-08-26T10:48:05.239Z,24.66
2022-08-26T10:50:40.541Z,24.86
2022-08-26T10:53:16.337Z,24.91
2022-08-26T10:55:53.505Z,24.96
2022-08-26T10:58:30.593Z,24.98
2022-08-26T11:01:22.908Z,24.91
2022-08-26T11:03:59.012Z,24.88
2022-08-26T11:06:32.867Z,24.97
2022-08-26T11:09:03.775Z,25.07
2022-08-26T11:11:51.972Z,25.12
2022-08-26T11:14:53.234Z,25.26
2022-08-26T11:18:00.112Z,25.63
2022-08-26T11:20:39.169Z,25.73
2022-08-26T11:23:52.888Z,25.72
2022-08-26T11:26:35.779Z,25.94
2022-08-26T11:29:13.857Z,26.00
2022-08-26T11:31:58.571Z,26.14
2022-08-26T11:34:59.330Z,26.24
2022-08-26T11:37:35.550Z,26.42
2022-08-26T11:40:15.864Z,26.87
2022-08-26T11:42:49.175Z,27.12
2022-08-26T11:45:22.317Z,27.22
2022-08-26T11:47:51.861Z,27.38
2022-08-26T11:50:23.490Z,27.23
2022-08-26T11:53:01.820Z,27.40
2022-08-26T11:55:35.630Z,27.32
2022-08-26T11:58:08.362Z,27.12
2022-08-26T12:00:52.426Z,26.97
2022-08-26T12:03:24.200Z,27.16
2022-08-26T12:05:55.370Z,26.94
2022-08-26T12:08:28.671Z,26.67
2022-08-26T12:11:10.451Z,26.83
2022-08-26T12:13:39.998Z,27.09
2022-08-26T12:16:09.624Z,27.12
2022-08-26T12:18:41.494Z,27.00
2022-08-26T12:21:17.371Z,27.14
2022-08-26T12:23:50.001Z,27.16
2022-08-26T12:26:28.537Z,27.29
2022-08-26T12:29:00.807Z,27.21
2022-08-26T12:31:32.996Z,26.99
2022-08-26T12:34:04.151Z,26.99
2022-08-26T12:36:35.385Z,26.80
2022-08-26T12:39:12.374Z,26.73
2022-08-26T12:41:51.658Z,26.68
2022-08-26T12:44:54.734Z,26.81
2022-08-26T12:47:32.727Z,27.27
2022-08-26T12:50:15.070Z,27.69
2022-08-26T12:52:46.627Z,27.85
2022-08-26T12:55:27.715Z,28.07
2022-08-26T12:58:15.539Z,28.20
2022-08-26T13:00:47.447Z,27.62
2022-08-26T13:03:47.442Z,27.43
2022-08-26T13:06:20.431Z,26.97
2022-08-26T13:08:51.451Z,26.87
2022-08-26T13:11:23.608Z,26.87
2022-08-26T13:13:58.326Z,26.63
2022-08-26T13:16:37.279Z,26.56
2022-08-26T13:19:10.516Z,26.60
2022-08-26T13:21:44.745Z,26.50
2022-08-26T13:24:16.163Z,26.39
2022-08-26T13:26:47.449Z,26.28
2022-08-26T13:29:20.342Z,26.26
2022-08-26T13:31:50.624Z,26.26
2022-08-26T13:34:21.982Z,26.33
2022-08-26T13:36:53.446Z,26.35
2022-08-26T13:39:23.677Z,26.25
2022-08-26T13:41:53.218Z,26.26
2022-08-26T13:44:25.323Z,26.20
2022-08-26T13:46:54.794Z,26.27
2022-08-26T13:49:24.801Z,26.26
2022-08-26T13:51:54.485Z,26.21
2022-08-26T13:54:24.378Z,26.23
2022-08-26T13:56:54.426Z,26.18
2022-08-26T13:59:26.523Z,26.19
2022-08-26T14:01:56.358Z,26.34
2022-08-26T14:04:27.024Z,26.39
2022-08-26T14:06:56.994Z,26.39
2022-08-26T14:09:26.508Z,26.51
2022-08-26T14:11:57.342Z,26.42
2022-08-26T14:14:30.227Z,26.40
2022-08-26T14:17:00.536Z,26.36
2022-08-26T14:19:31.216Z,26.35
2022-08-26T14:22:01.781Z,26.31
2022-08-26T14:24:31.644Z,26.26
2022-08-26T14:27:01.325Z,26.24
2022-08-26T14:29:33.483Z,26.36
2022-08-26T14:32:11.831Z,26.28
2022-08-26T14:34:42.303Z,26.18
2022-08-26T14:37:14.823Z,25.94
2022-08-26T14:39:44.953Z,25.72
2022-08-26T14:42:16.842Z,25.70
2022-08-26T14:44:49.665Z,25.70
2022-08-26T14:47:21.839Z,25.71
2022-08-26T14:49:51.465Z,25.69
2022-08-26T14:52:21.465Z,25.65
2022-08-26T14:54:48.362Z,25.91
2022-08-26T14:57:24.458Z,26.02
2022-08-26T14:59:56.533Z,25.99
2022-08-26T15:02:33.134Z,25.97
2022-08-26T15:05:04.030Z,25.94
2022-08-26T15:07:33.537Z,25.99
2022-08-26T15:10:03.243Z,25.89
2022-08-26T15:12:32.711Z,25.84
2022-08-26T15:15:04.910Z,25.87
2022-08-26T15:17:34.389Z,25.69
2022-08-26T15:20:04.538Z,25.64
2022-08-26T15:22:34.206Z,25.64
2022-08-26T15:25:03.838Z,25.59
2022-08-26T15:27:33.546Z,25.45
2022-08-26T15:30:07.654Z,25.43
2022-08-26T15:32:37.399Z,25.33
2022-08-26T15:35:09.296Z,25.38
2022-08-26T15:37:39.238Z,25.21
2022-08-26T15:40:10.975Z,25.15
2022-08-26T15:42:40.673Z,25.11
2022-08-26T15:45:13.982Z,25.11
2022-08-26T15:48:01.512Z,25.12
2022-08-26T15:50:32.910Z,25.10
2022-08-26T15:53:02.606Z,25.09
2022-08-26T15:55:32.081Z,24.94
2022-08-26T15:58:01.702Z,24.95
2022-08-26T16:00:34.302Z,24.86
2022-08-26T16:03:03.965Z,24.84
2022-08-26T16:05:33.550Z,24.85
2022-08-26T16:08:03.605Z,24.79
2022-08-26T16:10:33.783Z,24.73
2022-08-26T16:13:03.518Z,24.70
2022-08-26T16:15:36.271Z,24.65
2022-08-26T16:18:06.378Z,24.53
2022-08-26T16:20:38.901Z,24.44
2022-08-26T16:23:09.435Z,24.46
2022-08-26T16:25:38.929Z,24.45
2022-08-26T16:28:11.443Z,24.43
2022-08-26T16:30:44.864Z,24.35
2022-08-26T16:33:14.674Z,24.36
2022-08-26T16:35:58.699Z,24.33
2022-08-26T16:38:28.206Z,24.34
2022-08-26T16:40:57.797Z,24.32
2022-08-26T16:43:27.299Z,24.34
2022-08-26T16:45:59.506Z,24.33
2022-08-26T16:48:29.124Z,24.30
2022-08-26T16:50:58.711Z,24.20
2022-08-26T16:53:28.198Z,24.14
2022-08-26T16:55:58.198Z,24.08
2022-08-26T16:58:27.689Z,24.02
2022-08-26T17:01:00.117Z,23.89
2022-08-26T17:03:29.679Z,23.63
2022-08-26T17:05:59.220Z,23.36
2022-08-26T17:08:29.075Z,23.17
2022-08-26T17:10:58.887Z,22.82
2022-08-26T17:13:35.083Z,22.55
2022-08-26T17:16:09.514Z,22.31
2022-08-26T17:18:39.282Z,22.20
2022-08-26T17:21:11.056Z,22.07
2022-08-26T17:23:41.184Z,21.91
2022-08-26T17:26:11.940Z,21.80
2022-08-26T17:28:41.929Z,21.77
2022-08-26T17:31:15.844Z,21.61
2022-08-26T17:33:48.904Z,21.56
2022-08-26T17:36:23.137Z,21.50
2022-08-26T17:38:58.596Z,21.29
2022-08-26T17:41:31.646Z,21.14
2022-08-26T17:44:03.221Z,21.03
2022-08-26T17:46:38.537Z,20.94
2022-08-26T17:49:10.017Z,20.82
2022-08-26T17:51:39.639Z,20.74
2022-08-26T17:54:09.249Z,20.60
2022-08-26T17:56:38.717Z,20.55
2022-08-26T17:59:08.155Z,20.52
2022-08-26T18:01:41.406Z,20.47
2022-08-26T18:04:11.884Z,20.53
2022-08-26T18:06:42.678Z,20.55
2022-08-26T18:09:12.305Z,20.47
2022-08-26T18:11:43.220Z,20.42
2022-08-26T18:14:12.676Z,20.41
2022-08-26T18:16:44.781Z,20.41
2022-08-26T18:19:14.220Z,20.36
2022-08-26T18:21:43.821Z,20.31
2022-08-26T18:24:14.165Z,20.26
2022-08-26T18:26:48.790Z,20.23
2022-08-26T18:29:19.518Z,20.23
2022-08-26T18:31:51.654Z,20.11
2022-08-26T18:34:21.354Z,20.09
2022-08-26T18:36:51.089Z,19.98
2022-08-26T18:39:22.179Z,19.88
2022-08-26T18:41:55.104Z,19.93
2022-08-26T18:44:25.378Z,19.89
2022-08-26T18:46:57.431Z,19.69
2022-08-26T18:49:27.075Z,19.61
2022-08-26T18:51:56.638Z,19.67
2022-08-26T18:54:26.190Z,19.76
2022-08-26T18:56:55.836Z,19.79
2022-08-26T18:59:28.401Z,19.71
2022-08-26T19:02:02.795Z,19.73
2022-08-26T19:04:32.466Z,19.65
2022-08-26T19:07:01.982Z,19.67
2022-08-26T19:09:31.677Z,19.58
2022-08-26T19:12:01.534Z,19.52
2022-08-26T19:14:31.553Z,19.47
2022-08-26T19:17:03.730Z,19.47
2022-08-26T19:19:33.420Z,19.46
2022-08-26T19:22:03.010Z,19.46
2022-08-26T19:24:32.523Z,19.49
2022-08-26T19:27:03.682Z,19.51
2022-08-26T19:29:35.414Z,19.47
2022-08-26T19:32:08.537Z,19.48
2022-08-26T19:34:38.050Z,19.41
2022-08-26T19:37:07.640Z,19.37
2022-08-26T19:39:37.455Z,19.42
2022-08-26T19:42:07.502Z,19.49
2022-08-26T19:44:49.544Z,19.44
2022-08-26T19:47:21.990Z,19.32
2022-08-26T19:49:55.817Z,19.27
2022-08-26T19:52:30.340Z,19.33
2022-08-26T19:54:59.993Z,19.26
2022-08-26T19:57:29.509Z,19.22
2022-08-26T20:00:00.185Z,19.13
2022-08-26T20:02:34.060Z,19.06
2022-08-26T20:05:03.622Z,19.06
2022-08-26T20:07:33.290Z,19.08
2022-08-26T20:10:03.548Z,19.11
2022-08-26T20:12:35.562Z,19.11
2022-08-26T20:15:05.463Z,19.10
2022-08-26T20:17:37.554Z,19.09
2022-08-26T20:20:28.509Z,19.07
2022-08-26T20:23:04.024Z,18.99
2022-08-26T20:25:33.695Z,19.09
2022-08-26T20:28:03.700Z,19.10
2022-08-26T20:30:33.298Z,19.07
2022-08-26T20:33:05.389Z,19.09
2022-08-26T20:35:34.883Z,19.09
2022-08-26T20:38:05.752Z,19.12
2022-08-26T20:40:35.619Z,19.12
2022-08-26T20:43:06.098Z,19.08
2022-08-26T20:45:35.755Z,19.08
2022-08-26T20:48:08.015Z,19.02
2022-08-26T20:50:39.066Z,19.02
2022-08-26T20:53:09.111Z,18.99
2022-08-26T20:55:38.587Z,18.99
2022-08-26T20:58:08.362Z,18.97
2022-08-26T21:00:40.291Z,18.94
2022-08-26T21:03:12.425Z,18.89
2022-08-26T21:05:41.906Z,18.87
2022-08-26T21:08:11.497Z,18.88
2022-08-26T21:10:41.713Z,18.86
2022-08-26T21:13:11.513Z,18.83
2022-08-26T21:15:41.071Z,18.80
2022-08-26T21:18:13.192Z,18.83
2022-08-26T21:20:42.687Z,18.79
2022-08-26T21:23:13.663Z,18.76
2022-08-26T21:25:43.274Z,18.70
2022-08-26T21:28:12.760Z,18.68
2022-08-26T21:30:43.096Z,18.66
2022-08-26T21:33:15.186Z,18.62
2022-08-26T21:35:44.697Z,18.66
2022-08-26T21:38:14.203Z,18.57
2022-08-26T21:40:44.133Z,18.65
2022-08-26T21:43:25.969Z,18.64
2022-08-26T21:46:07.505Z,18.61
2022-08-26T21:48:40.366Z,18.59
2022-08-26T21:51:10.698Z,18.57
2022-08-26T21:53:40.172Z,18.55
2022-08-26T21:56:11.562Z,18.56
2022-08-26T21:58:41.586Z,18.57
2022-08-26T22:01:12.275Z,18.48
2022-08-26T22:03:47.480Z,18.42
2022-08-26T22:06:17.493Z,18.48
2022-08-26T22:08:47.067Z,18.49
2022-08-26T22:11:17.907Z,18.44
2022-08-26T22:13:48.576Z,18.41
2022-08-26T22:16:18.501Z,18.48
2022-08-26T22:18:50.640Z,18.52
2022-08-26T22:21:23.802Z,18.46
2022-08-26T22:23:57.908Z,18.39
2022-08-26T22:26:30.050Z,18.43
2022-08-26T22:29:01.324Z,18.42
2022-08-26T22:31:38.494Z,18.38
2022-08-26T22:34:15.209Z,18.35
2022-08-26T22:36:46.786Z,18.35
2022-08-26T22:39:17.380Z,18.34
2022-08-26T22:41:48.746Z,18.33
2022-08-26T22:44:19.491Z,18.36
2022-08-26T22:46:49.883Z,18.36
2022-08-26T22:49:21.962Z,18.44
2022-08-26T22:51:51.796Z,18.40
2022-08-26T22:54:21.485Z,18.39
2022-08-26T22:56:51.186Z,18.42
2022-08-26T22:59:20.654Z,18.35
2022-08-26T23:01:50.226Z,18.35
2022-08-26T23:04:22.468Z,18.33
2022-08-26T23:06:52.218Z,18.33
2022-08-26T23:09:21.826Z,18.32
2022-08-26T23:11:51.375Z,18.33
2022-08-26T23:14:21.722Z,18.31
2022-08-26T23:16:51.841Z,18.32
2022-08-26T23:19:25.491Z,18.28
2022-08-26T23:21:56.365Z,18.22
2022-08-26T23:24:25.865Z,18.21
2022-08-26T23:26:55.399Z,18.26
2022-08-26T23:29:24.854Z,18.23
2022-08-26T23:31:54.577Z,18.27
2022-08-26T23:34:39.158Z,18.27
2022-08-26T23:37:09.218Z,18.25
2022-08-26T23:39:39.134Z,18.26
2022-08-26T23:42:09.241Z,18.22
2022-08-26T23:44:38.713Z,18.23
2022-08-26T23:47:09.012Z,18.21
2022-08-26T23:49:41.515Z,18.25
2022-08-26T23:52:23.543Z,18.26
2022-08-26T23:54:53.353Z,18.22
2022-08-26T23:57:24.831Z,18.22
2022-08-26T23:59:54.482Z,18.29
